SRZ weather

El Trompillo Airport
Santa Cruz, Santa Cruz Department, Bolivia

Public forecast

Using degrees Celsius for public forecast. Weather courtesy of forecast.io.

METAR (pilot weather report)

Retrieved 2019/03/23 16:00 UTC (33 minutes ago):

SLET 231600Z 15009KT 9999 SCT017 BKN070 28/19 Q1016

TAF (pilot weather forecast)

Retrieved 2019/03/23 12:10 UTC (4 hours ago):

TAF SLET 230950Z 2312/2412 18010KT 9999 SCT020 BKN070 TX31/2320Z TN21 /2411Z TEMPO 2321/2400 VRB02KT SCT023 BECMG 2406/2409 19010KT BKN070